createdAt,value
2023-03-21T00:00:59.452Z,94.38
2023-03-21T00:04:02.486Z,93.46
2023-03-21T00:07:04.962Z,93.02
2023-03-21T00:10:15.384Z,92.60
2023-03-21T00:13:20.505Z,92.36
2023-03-21T00:16:33.168Z,91.31
2023-03-21T00:19:38.545Z,92.07
2023-03-21T00:22:42.009Z,92.45
2023-03-21T00:25:44.293Z,92.87
2023-03-21T00:28:46.983Z,92.94
2023-03-21T00:31:49.409Z,93.88
2023-03-21T00:35:13.681Z,94.22
2023-03-21T00:38:15.360Z,94.68
2023-03-21T00:41:31.678Z,95.42
2023-03-21T00:44:40.244Z,96.13
2023-03-21T00:47:43.629Z,97.14
2023-03-21T00:50:47.883Z,97.32
2023-03-21T00:53:50.539Z,97.81
2023-03-21T00:56:53.079Z,97.82
2023-03-21T00:59:58.160Z,97.81
2023-03-21T01:03:14.523Z,97.85
2023-03-21T01:06:27.360Z,97.77
2023-03-21T01:09:29.732Z,97.60
2023-03-21T01:12:33.588Z,98.06
2023-03-21T01:15:43.599Z,97.96
2023-03-21T01:18:46.579Z,97.85
2023-03-21T01:21:49.045Z,98.10
2023-03-21T01:24:58.656Z,98.61
2023-03-21T01:28:05.793Z,99.00
2023-03-21T01:31:09.722Z,99.33
2023-03-21T01:34:12.333Z,99.12
2023-03-21T01:37:15.014Z,99.00
2023-03-21T01:40:19.656Z,99.23
2023-03-21T01:43:25.597Z,99.40
2023-03-21T01:46:32.288Z,98.79
2023-03-21T01:49:46.435Z,98.63
2023-03-21T01:52:50.198Z,98.58
2023-03-21T01:55:53.851Z,98.35
2023-03-21T01:59:03.096Z,98.48
2023-03-21T02:02:09.904Z,98.61
2023-03-21T02:05:13.295Z,98.72
2023-03-21T02:08:16.454Z,98.37
2023-03-21T02:11:19.308Z,98.19
2023-03-21T02:14:28.912Z,98.25
2023-03-21T02:17:33.391Z,98.07
2023-03-21T02:20:54.432Z,97.94
2023-03-21T02:24:12.092Z,98.06
2023-03-21T02:27:14.418Z,98.84
2023-03-21T02:30:37.407Z,99.02
2023-03-21T02:34:04.379Z,98.50
2023-03-21T02:37:07.437Z,98.19
2023-03-21T02:40:28.592Z,98.42
2023-03-21T02:43:51.758Z,98.64
2023-03-21T02:47:06.877Z,99.09
2023-03-21T02:50:13.788Z,98.68
2023-03-21T02:53:18.563Z,98.03
2023-03-21T02:56:22.718Z,97.81
2023-03-21T02:59:29.043Z,98.08
2023-03-21T03:02:32.384Z,98.02
2023-03-21T03:05:37.293Z,98.47
2023-03-21T03:09:01.105Z,99.15
2023-03-21T03:12:11.590Z,99.56
2023-03-21T03:15:36.095Z,100.00
2023-03-21T03:18:39.852Z,100.00
2023-03-21T03:21:44.525Z,100.00
2023-03-21T03:24:56.148Z,100.00
2023-03-21T03:27:59.027Z,100.00
2023-03-21T03:31:09.258Z,100.00
2023-03-21T03:34:15.279Z,100.00
2023-03-21T03:37:21.790Z,100.00
2023-03-21T03:40:26.870Z,100.00
2023-03-21T03:43:43.740Z,100.00
2023-03-21T03:46:51.208Z,100.00
2023-03-21T03:50:01.367Z,100.00
2023-03-21T03:53:18.543Z,100.00
2023-03-21T03:56:22.420Z,100.00
2023-03-21T03:59:25.990Z,100.00
2023-03-21T04:02:30.292Z,100.00
2023-03-21T04:05:33.322Z,100.00
2023-03-21T04:08:37.655Z,100.00
2023-03-21T04:11:40.645Z,100.00
2023-03-21T04:14:46.027Z,100.00
2023-03-21T04:17:50.837Z,100.00
2023-03-21T04:20:53.410Z,100.00
2023-03-21T04:23:56.295Z,100.00
2023-03-21T04:26:58.800Z,100.00
2023-03-21T04:30:02.614Z,100.00
2023-03-21T04:33:06.320Z,100.00
2023-03-21T04:36:09.530Z,100.00
2023-03-21T04:39:13.661Z,100.00
2023-03-21T04:42:18.570Z,100.00
2023-03-21T04:45:20.868Z,100.00
2023-03-21T04:48:24.570Z,100.00
2023-03-21T04:51:27.313Z,100.00
2023-03-21T04:54:30.084Z,100.00
2023-03-21T04:57:32.525Z,100.00
2023-03-21T05:00:39.083Z,100.00
2023-03-21T05:03:41.854Z,100.00
2023-03-21T05:06:45.903Z,100.00
2023-03-21T05:09:48.283Z,100.00
2023-03-21T05:12:52.426Z,100.00
2023-03-21T05:15:55.469Z,100.00
2023-03-21T05:19:05.069Z,100.00
2023-03-21T05:22:09.951Z,100.00
2023-03-21T05:25:13.729Z,100.00
2023-03-21T05:28:20.602Z,99.29
2023-03-21T05:31:24.151Z,98.11
2023-03-21T05:34:28.266Z,97.16
2023-03-21T05:37:31.139Z,96.45
2023-03-21T05:40:34.038Z,96.23
2023-03-21T05:43:37.706Z,95.34
2023-03-21T05:46:40.343Z,95.29
2023-03-21T05:49:44.344Z,94.62
2023-03-21T05:52:46.829Z,94.22
2023-03-21T05:55:49.494Z,93.87
2023-03-21T05:58:53.588Z,93.05
2023-03-21T06:01:57.403Z,92.20
2023-03-21T06:05:00.728Z,90.88
2023-03-21T06:08:03.178Z,90.33
2023-03-21T06:11:07.045Z,90.20
2023-03-21T06:14:10.832Z,89.61
2023-03-21T06:17:13.705Z,88.87
2023-03-21T06:20:16.592Z,87.67
2023-03-21T06:23:19.649Z,87.40
2023-03-21T06:26:23.393Z,85.77
2023-03-21T06:29:26.786Z,84.65
2023-03-21T06:32:29.387Z,83.37
2023-03-21T06:35:32.534Z,79.95
2023-03-21T06:38:38.003Z,77.69
2023-03-21T06:41:41.628Z,76.02
2023-03-21T06:44:44.065Z,72.25
2023-03-21T06:47:47.358Z,69.15
2023-03-21T06:50:51.014Z,63.72
2023-03-21T06:53:54.561Z,55.97
2023-03-21T06:56:57.365Z,54.13
2023-03-21T07:00:01.543Z,52.83
2023-03-21T07:03:04.034Z,53.43
2023-03-21T07:06:08.643Z,54.99
2023-03-21T07:09:11.153Z,53.78
2023-03-21T07:12:13.901Z,49.02
2023-03-21T07:15:17.537Z,52.07
2023-03-21T07:18:20.599Z,57.64
2023-03-21T07:21:23.636Z,64.12
2023-03-21T07:24:27.400Z,70.04
2023-03-21T07:27:29.707Z,70.21
2023-03-21T07:30:32.579Z,68.95
2023-03-21T07:33:38.192Z,59.35
2023-03-21T07:36:40.860Z,50.00
2023-03-21T07:39:43.371Z,47.25
2023-03-21T07:42:48.513Z,45.06
2023-03-21T07:45:59.690Z,45.55
2023-03-21T07:49:02.975Z,40.96
2023-03-21T07:52:06.817Z,33.51
2023-03-21T07:55:09.843Z,32.09
2023-03-21T07:58:12.288Z,33.60
2023-03-21T08:01:14.945Z,36.13
2023-03-21T08:04:17.753Z,37.93
2023-03-21T08:07:20.064Z,37.88
2023-03-21T08:10:23.100Z,36.85
2023-03-21T08:13:26.151Z,36.34
2023-03-21T08:16:29.024Z,34.19
2023-03-21T08:19:31.451Z,38.98
2023-03-21T08:22:35.924Z,39.90
2023-03-21T08:25:38.930Z,37.48
2023-03-21T08:28:41.923Z,38.64
2023-03-21T08:31:44.821Z,39.40
2023-03-21T08:34:47.435Z,42.23
2023-03-21T08:37:49.916Z,41.98
2023-03-21T08:40:52.588Z,40.53
2023-03-21T08:43:55.022Z,40.27
2023-03-21T08:46:57.897Z,35.50
2023-03-21T08:50:00.642Z,36.35
2023-03-21T08:53:03.440Z,38.02
2023-03-21T08:56:06.358Z,37.54
2023-03-21T08:59:10.192Z,42.01
2023-03-21T09:02:16.237Z,44.48
2023-03-21T09:05:19.955Z,47.96
2023-03-21T09:08:23.498Z,48.42
2023-03-21T09:11:26.170Z,46.98
2023-03-21T09:14:29.330Z,46.59
2023-03-21T09:17:32.915Z,45.95
2023-03-21T09:20:38.421Z,47.27
2023-03-21T09:23:41.697Z,47.66
2023-03-21T09:26:44.667Z,48.49
2023-03-21T09:29:47.463Z,47.93
2023-03-21T09:32:50.457Z,46.55
2023-03-21T09:35:53.844Z,47.08
2023-03-21T09:38:57.241Z,47.75
2023-03-21T09:42:07.626Z,49.29
2023-03-21T09:45:18.067Z,49.15
2023-03-21T09:48:30.264Z,48.01
2023-03-21T09:51:35.805Z,47.81
2023-03-21T09:54:40.673Z,47.28
2023-03-21T09:57:43.993Z,47.87
2023-03-21T10:00:49.793Z,47.48
2023-03-21T10:03:54.444Z,47.50
2023-03-21T10:06:59.386Z,47.58
2023-03-21T10:10:04.408Z,47.71
2023-03-21T10:13:13.883Z,47.33
2023-03-21T10:16:19.881Z,47.47
2023-03-21T10:19:23.386Z,46.32
2023-03-21T10:22:25.977Z,45.89
2023-03-21T10:25:32.084Z,44.99
2023-03-21T10:28:52.448Z,45.05
2023-03-21T10:31:55.919Z,45.35
2023-03-21T10:34:59.237Z,44.54
2023-03-21T10:38:01.652Z,44.67
2023-03-21T10:41:04.365Z,44.11
2023-03-21T10:44:14.736Z,43.55
2023-03-21T10:47:21.600Z,43.56
2023-03-21T10:50:29.506Z,43.39
2023-03-21T10:53:35.072Z,42.66
2023-03-21T10:56:57.749Z,42.81
2023-03-21T11:00:02.473Z,42.80
2023-03-21T11:03:07.092Z,42.50
2023-03-21T11:06:15.280Z,41.80
2023-03-21T11:09:20.334Z,42.44
2023-03-21T11:12:30.736Z,42.26
2023-03-21T11:15:48.969Z,41.81
2023-03-21T11:18:56.610Z,41.86
2023-03-21T11:22:00.062Z,41.87
2023-03-21T11:25:06.459Z,41.96
2023-03-21T11:28:12.340Z,41.78
2023-03-21T11:31:17.211Z,41.23
2023-03-21T11:34:53.284Z,40.50
2023-03-21T11:37:56.722Z,40.16
2023-03-21T11:41:02.786Z,40.82
2023-03-21T11:44:05.582Z,40.18
2023-03-21T11:47:09.338Z,40.60
2023-03-21T11:50:15.701Z,40.96
2023-03-21T11:53:18.250Z,41.00
2023-03-21T11:56:37.488Z,41.45
2023-03-21T12:00:04.553Z,41.61
2023-03-21T12:03:30.755Z,41.35
2023-03-21T12:06:42.760Z,38.83
2023-03-21T12:09:53.022Z,39.37
2023-03-21T12:13:01.412Z,42.13
2023-03-21T12:16:04.164Z,43.02
2023-03-21T12:19:24.966Z,42.58
2023-03-21T12:22:30.231Z,43.51
2023-03-21T12:25:36.705Z,42.56
2023-03-21T12:28:47.002Z,42.31
2023-03-21T12:31:49.676Z,43.04
2023-03-21T12:35:10.693Z,42.97
2023-03-21T12:38:18.125Z,42.67
2023-03-21T12:41:39.448Z,40.97
2023-03-21T12:44:45.483Z,39.80
2023-03-21T12:47:51.778Z,37.40
2023-03-21T12:50:56.263Z,36.47
2023-03-21T12:54:13.427Z,36.87
2023-03-21T12:57:19.057Z,38.32
2023-03-21T13:00:25.509Z,39.48
2023-03-21T13:03:40.272Z,40.79
2023-03-21T13:06:43.437Z,40.94
2023-03-21T13:09:46.784Z,40.69
2023-03-21T13:12:49.537Z,40.71
2023-03-21T13:15:55.420Z,40.74
2023-03-21T13:19:02.951Z,40.24
2023-03-21T13:22:07.556Z,40.40
2023-03-21T13:25:17.700Z,39.85
2023-03-21T13:28:27.490Z,39.63
2023-03-21T13:31:33.879Z,39.62
2023-03-21T13:34:44.739Z,37.45
2023-03-21T13:37:52.717Z,36.07
2023-03-21T13:41:01.084Z,36.45
2023-03-21T13:44:03.393Z,37.42
2023-03-21T13:47:22.377Z,38.52
2023-03-21T13:50:26.399Z,38.02
2023-03-21T13:53:33.015Z,38.75
2023-03-21T13:56:47.473Z,39.00
2023-03-21T13:59:50.273Z,39.49
2023-03-21T14:02:56.180Z,40.19
2023-03-21T14:05:59.069Z,40.11
2023-03-21T14:09:02.437Z,40.20
2023-03-21T14:12:08.220Z,39.99
2023-03-21T14:15:18.022Z,38.93
2023-03-21T14:18:34.918Z,38.93
2023-03-21T14:21:48.280Z,37.82
2023-03-21T14:24:58.148Z,38.23
2023-03-21T14:28:01.700Z,38.46
2023-03-21T14:31:04.745Z,38.27
2023-03-21T14:34:07.279Z,38.74
2023-03-21T14:37:11.284Z,38.99
2023-03-21T14:40:22.571Z,39.17
2023-03-21T14:43:26.031Z,39.82
2023-03-21T14:46:28.421Z,40.35
2023-03-21T14:49:32.993Z,40.68
2023-03-21T14:52:35.531Z,40.78
2023-03-21T14:55:42.264Z,40.71
2023-03-21T14:58:45.651Z,41.03
2023-03-21T15:01:49.716Z,40.97
2023-03-21T15:04:53.566Z,40.00
2023-03-21T15:07:58.365Z,39.11
2023-03-21T15:11:09.404Z,39.03
2023-03-21T15:14:14.196Z,38.70
2023-03-21T15:17:16.723Z,39.83
2023-03-21T15:20:21.969Z,40.67
2023-03-21T15:23:30.617Z,40.95
2023-03-21T15:26:33.305Z,41.36
2023-03-21T15:29:37.030Z,42.64
2023-03-21T15:32:39.861Z,43.91
2023-03-21T15:35:54.140Z,44.84
2023-03-21T15:38:57.387Z,45.89
2023-03-21T15:42:20.127Z,46.11
2023-03-21T15:45:24.751Z,46.06
2023-03-21T15:48:28.190Z,46.33
2023-03-21T15:51:31.891Z,46.73
2023-03-21T15:54:37.080Z,46.67
2023-03-21T15:57:47.493Z,46.92
2023-03-21T16:00:54.942Z,46.42
2023-03-21T16:04:02.155Z,46.67
2023-03-21T16:07:15.446Z,47.19
2023-03-21T16:10:28.077Z,46.56
2023-03-21T16:13:30.356Z,46.92
2023-03-21T16:16:33.124Z,47.41
2023-03-21T16:19:35.877Z,47.62
2023-03-21T16:22:39.700Z,47.73
2023-03-21T16:25:43.789Z,48.36
2023-03-21T16:28:46.528Z,48.85
2023-03-21T16:31:50.411Z,49.34
2023-03-21T16:34:53.785Z,49.98
2023-03-21T16:37:56.157Z,50.41
2023-03-21T16:41:00.896Z,50.68
2023-03-21T16:44:03.196Z,51.11
2023-03-21T16:47:16.809Z,51.48
2023-03-21T16:50:31.659Z,51.91
2023-03-21T16:53:34.383Z,52.51
2023-03-21T16:56:38.983Z,52.89
2023-03-21T16:59:42.830Z,53.25
2023-03-21T17:02:47.851Z,53.66
2023-03-21T17:05:50.559Z,53.44
2023-03-21T17:08:53.457Z,54.00
2023-03-21T17:11:56.294Z,54.30
2023-03-21T17:14:58.607Z,54.49
2023-03-21T17:18:01.485Z,54.92
2023-03-21T17:21:10.651Z,55.35
2023-03-21T17:24:13.758Z,55.58
2023-03-21T17:27:18.308Z,55.60
2023-03-21T17:30:31.943Z,55.85
2023-03-21T17:33:34.319Z,56.41
2023-03-21T17:36:38.083Z,56.43
2023-03-21T17:39:42.918Z,56.66
2023-03-21T17:42:46.363Z,57.17
2023-03-21T17:45:48.650Z,57.44
2023-03-21T17:48:51.502Z,57.46
2023-03-21T17:51:54.449Z,57.68
2023-03-21T17:54:57.070Z,57.78
2023-03-21T17:57:59.652Z,57.91
2023-03-21T18:01:02.322Z,58.22
2023-03-21T18:04:05.475Z,58.66
2023-03-21T18:07:13.129Z,58.75
2023-03-21T18:10:18.988Z,58.77
2023-03-21T18:13:21.434Z,59.18
2023-03-21T18:16:25.697Z,59.58
2023-03-21T18:19:28.319Z,59.95
2023-03-21T18:22:31.503Z,60.38
2023-03-21T18:25:33.859Z,60.59
2023-03-21T18:28:41.342Z,60.90
2023-03-21T18:31:51.586Z,61.43
2023-03-21T18:35:00.488Z,61.49
2023-03-21T18:38:03.329Z,61.66
2023-03-21T18:41:07.653Z,62.14
2023-03-21T18:44:17.506Z,62.62
2023-03-21T18:47:27.872Z,62.85
2023-03-21T18:50:31.017Z,63.29
2023-03-21T18:53:33.647Z,63.34
2023-03-21T18:57:27.427Z,64.06
2023-03-21T19:00:01.100Z,64.39
2023-03-21T19:03:18.702Z,64.32
2023-03-21T19:06:24.275Z,64.33
2023-03-21T19:09:30.927Z,64.36
2023-03-21T19:12:34.202Z,64.83
2023-03-21T19:15:36.765Z,65.47
2023-03-21T19:18:53.962Z,65.52
2023-03-21T19:21:59.258Z,65.74
2023-03-21T19:25:01.932Z,65.79
2023-03-21T19:28:04.641Z,66.51
2023-03-21T19:31:08.411Z,67.01
2023-03-21T19:34:11.253Z,67.37
2023-03-21T19:37:13.862Z,68.14
2023-03-21T19:40:16.494Z,68.33
2023-03-21T19:43:33.056Z,68.70
2023-03-21T19:46:36.021Z,68.94
2023-03-21T19:50:15.819Z,68.69
2023-03-21T19:53:03.325Z,68.32
2023-03-21T19:56:19.628Z,68.56
2023-03-21T19:59:22.971Z,69.15
2023-03-21T20:02:35.655Z,68.36
2023-03-21T20:05:39.514Z,68.70
2023-03-21T20:12:05.716Z,68.91
2023-03-21T20:15:17.219Z,69.57
2023-03-21T20:18:24.058Z,69.74
2023-03-21T20:21:32.455Z,69.61
2023-03-21T20:24:38.579Z,70.25
2023-03-21T20:27:43.392Z,70.30
2023-03-21T20:30:51.375Z,70.05
2023-03-21T20:33:53.987Z,69.94
2023-03-21T20:36:58.153Z,70.45
2023-03-21T20:40:00.850Z,70.82
2023-03-21T20:43:33.448Z,70.84
2023-03-21T20:46:28.403Z,71.46
2023-03-21T20:49:31.548Z,71.49
2023-03-21T20:53:00.809Z,72.23
2023-03-21T20:55:57.651Z,72.77
2023-03-21T20:59:15.250Z,72.53
2023-03-21T21:02:18.273Z,72.21
2023-03-21T21:05:31.493Z,72.13
2023-03-21T21:08:36.495Z,72.13
2023-03-21T21:15:02.122Z,72.09
2023-03-21T21:18:07.452Z,71.99
2023-03-21T21:21:10.668Z,72.51
2023-03-21T21:24:14.562Z,72.85
2023-03-21T21:27:17.405Z,73.10
2023-03-21T21:30:19.744Z,72.96
2023-03-21T21:33:22.581Z,73.12
2023-03-21T21:36:25.006Z,73.45
2023-03-21T21:39:27.648Z,72.87
2023-03-21T21:42:29.982Z,73.55
2023-03-21T21:45:32.596Z,73.61
2023-03-21T21:48:35.050Z,73.56
2023-03-21T21:51:38.154Z,73.31
2023-03-21T21:55:02.166Z,73.02
2023-03-21T21:58:08.422Z,72.82
2023-03-21T22:01:10.822Z,72.91
2023-03-21T22:04:14.585Z,73.61
2023-03-21T22:07:17.002Z,74.12
2023-03-21T22:10:20.731Z,74.50
2023-03-21T22:13:23.255Z,74.98
2023-03-21T22:16:26.250Z,75.16
2023-03-21T22:19:28.609Z,75.17
2023-03-21T22:22:32.175Z,76.74
2023-03-21T22:25:34.466Z,78.34
2023-03-21T22:28:40.529Z,80.14
2023-03-21T22:31:44.189Z,81.01
2023-03-21T22:34:46.786Z,81.95
2023-03-21T22:37:49.082Z,81.51
2023-03-21T22:40:54.826Z,81.62
2023-03-21T22:43:57.207Z,82.01
2023-03-21T22:47:00.283Z,82.47
2023-03-21T22:50:02.576Z,83.09
2023-03-21T22:53:05.282Z,84.29
2023-03-21T22:56:08.128Z,85.63
2023-03-21T22:59:11.289Z,86.72
2023-03-21T23:02:14.416Z,88.08
2023-03-21T23:05:17.203Z,88.68
2023-03-21T23:08:19.566Z,89.31
2023-03-21T23:11:22.281Z,90.39
2023-03-21T23:14:24.611Z,91.09
2023-03-21T23:17:27.218Z,91.85
2023-03-21T23:20:29.503Z,92.43
2023-03-21T23:23:36.632Z,93.54
2023-03-21T23:26:39.197Z,93.70
2023-03-21T23:29:43.871Z,94.18
2023-03-21T23:32:47.008Z,94.76
2023-03-21T23:35:49.731Z,96.71
2023-03-21T23:38:52.732Z,97.09
2023-03-21T23:41:55.561Z,97.41
2023-03-21T23:44:57.865Z,97.51
2023-03-21T23:48:00.834Z,97.54
2023-03-21T23:51:03.415Z,97.50
2023-03-21T23:54:06.100Z,97.44
2023-03-21T23:57:08.581Z,97.70
